createdAt,value
2023-03-29T00:03:21.190Z,70.7474106489699
2023-03-29T00:06:21.712Z,69.95873270353901
2023-03-29T00:09:19.288Z,70.43121449023539
2023-03-29T00:12:14.815Z,70.96889136921004
2023-03-29T00:15:11.382Z,70.7262398788846
2023-03-29T00:21:00.872Z,71.0166869749178
2023-03-29T00:23:57.076Z,71.14813951292042
2023-03-29T00:26:54.650Z,71.22983578142134
2023-03-29T00:29:50.199Z,71.1839679597629
2023-03-29T00:32:46.797Z,69.29022463776525
2023-03-29T00:35:43.377Z,71.13811187025833
2023-03-29T00:38:41.130Z,68.2359019930648
2023-03-29T00:41:40.442Z,69.02100377142807
2023-03-29T00:44:46.933Z,69.50274432404245
2023-03-29T00:47:45.540Z,69.84114783154264
2023-03-29T00:50:48.024Z,70.05326811792365
2023-03-29T00:53:48.579Z,69.91706078933295
2023-03-29T00:56:48.203Z,70.33689367770096
2023-03-29T00:59:46.659Z,71.32406756241768
2023-03-29T01:02:44.331Z,70.74962906895782
2023-03-29T01:05:44.823Z,71.13516657177586
2023-03-29T01:08:44.367Z,71.87443699116139
2023-03-29T01:11:45.889Z,72.2604312342855
2023-03-29T01:14:46.468Z,72.42867049509216
2023-03-29T01:55:10.411Z,70.81247260963254
2023-03-29T01:58:07.937Z,70.99988847346087
2023-03-29T02:01:10.610Z,70.78877537288332
2023-03-29T02:04:17.034Z,70.47252952994728
2023-03-29T02:07:15.607Z,70.89438893075955
2023-03-29T02:10:14.097Z,69.60783203116985
2023-03-29T02:13:09.729Z,70.51429025894885
2023-03-29T02:16:08.265Z,70.72005460979551
2023-03-29T02:19:05.807Z,70.35537792155914
2023-03-29T02:22:08.365Z,70.84788837199717
2023-03-29T02:25:07.899Z,71.17922140965892
2023-03-29T02:28:04.455Z,71.97117296328253
2023-03-29T02:31:08.031Z,72.02290274326438
2023-03-29T02:34:09.541Z,70.1412556729556
2023-03-29T02:37:15.096Z,69.30822756933085
2023-03-29T02:40:12.669Z,67.00546478985133
2023-03-29T02:43:10.191Z,68.7849070107296
2023-03-29T02:46:07.804Z,67.75135926158957
2023-03-29T02:49:05.318Z,67.76655057189632
2023-03-29T02:52:06.855Z,69.01554215918627
2023-03-29T02:55:06.382Z,69.90578818124328
2023-03-29T02:58:08.022Z,70.45293946051818
2023-03-29T03:01:05.500Z,70.84640612538855
2023-03-29T03:04:02.104Z,69.22377994745983
2023-03-29T03:06:58.630Z,69.4076577819735
2023-03-29T03:09:55.184Z,70.99648070218508
2023-03-29T03:12:50.741Z,68.78849078880776
2023-03-29T03:15:49.575Z,69.22965918730787
2023-03-29T03:18:45.817Z,70.10368311523801
2023-03-29T03:21:41.386Z,70.17147889824416
2023-03-29T03:24:39.008Z,69.8936018501444
2023-03-29T03:27:34.504Z,70.15608881241168
2023-03-29T03:30:30.088Z,71.67457965826338
2023-03-29T03:33:27.649Z,72.18305602786316
2023-03-29T03:36:26.218Z,72.30773383002025
2023-03-29T03:39:22.778Z,72.60671822668374
2023-03-29T03:42:18.305Z,73.07585345450242
2023-03-29T03:45:15.900Z,73.40620247750567
2023-03-29T03:48:11.468Z,71.04863134744207
2023-03-29T03:54:13.533Z,71.0966326710922
2023-03-29T03:57:09.148Z,71.0767893280621
2023-03-29T04:00:09.656Z,71.76105962420517
2023-03-29T04:03:05.317Z,71.47991751070472
2023-03-29T04:06:01.762Z,70.78644649198249
2023-03-29T04:08:57.271Z,71.67654564558077
2023-03-29T04:11:52.868Z,70.68455348395472
2023-03-29T04:14:48.404Z,70.59185450747735
2023-03-29T04:34:56.462Z,68.4506917899353
2023-03-29T04:37:54.033Z,67.5522814122475
2023-03-29T04:40:54.720Z,66.40371722295258
2023-03-29T04:43:50.088Z,66.63229106467423
2023-03-29T04:49:51.188Z,67.20334950102551
2023-03-29T04:55:55.314Z,67.85281530773115
2023-03-29T04:58:50.862Z,66.47831370849843
2023-03-29T05:04:51.904Z,66.43851554015326
2023-03-29T05:07:50.503Z,66.60839511974052
2023-03-29T05:10:47.076Z,66.34575164208579
2023-03-29T05:13:43.637Z,66.41254414010275
2023-03-29T05:33:53.799Z,64.40098933353538
2023-03-29T05:36:51.139Z,63.76958243618189
2023-03-29T05:39:48.700Z,64.19868201518454
2023-03-29T05:42:47.202Z,64.69994622699137
2023-03-29T05:45:42.822Z,63.204509600728024
2023-03-29T05:48:38.345Z,62.55297831523478
2023-03-29T05:51:34.933Z,61.52412482091067
2023-03-29T05:54:30.494Z,61.90329258505376
2023-03-29T05:57:26.142Z,63.07332121632102
2023-03-29T06:00:23.662Z,61.51277649129675
2023-03-29T06:03:21.209Z,60.368244874309234
2023-03-29T06:06:18.742Z,61.0786830273954
2023-03-29T06:09:15.259Z,59.44073923386125
2023-03-29T06:12:11.881Z,59.37405180216201
2023-03-29T06:15:10.562Z,60.6354933256055
2023-03-29T06:18:10.991Z,55.295121701061426
2023-03-29T06:21:08.474Z,54.31229412521337
2023-03-29T06:24:05.069Z,51.57452430001546
2023-03-29T06:27:01.636Z,54.711168169880075
2023-03-29T06:29:57.169Z,57.17209041937831
2023-03-29T06:32:54.926Z,49.88463972481512
2023-03-29T06:35:51.343Z,52.584097667407086
2023-03-29T06:38:47.820Z,52.65860778431226
2023-03-29T06:41:44.401Z,52.83141669375066
2023-03-29T06:44:42.080Z,49.38006876527841
2023-03-29T06:47:37.552Z,50.081297413768375
2023-03-29T06:50:34.065Z,46.855131223940695
2023-03-29T06:53:30.617Z,47.261989916249945
2023-03-29T06:56:26.215Z,50.27360280065616
2023-03-29T07:02:29.336Z,47.88489989673382
2023-03-29T07:05:26.850Z,47.723067212666976
2023-03-29T07:08:31.548Z,44.385858406929664
2023-03-29T07:11:26.942Z,42.05905803549628
2023-03-29T07:14:22.510Z,44.120729094553035
2023-03-29T07:17:18.073Z,41.73520067525786
2023-03-29T07:20:14.657Z,40.564841654198446
2023-03-29T07:23:11.205Z,41.65213255740611
2023-03-29T07:25:46.845Z,37.90503254381787
2023-03-29T07:31:49.912Z,39.28227379046713
2023-03-29T07:34:49.406Z,69.61030076346279
2023-03-29T07:37:46.005Z,51.57425426393579
2023-03-29T07:40:44.576Z,35.220432260999296
2023-03-29T07:43:42.113Z,33.35610447922982
2023-03-29T07:46:38.655Z,37.425247350772985
2023-03-29T07:49:35.207Z,39.17346216007878
2023-03-29T07:52:30.789Z,35.83142021491116
2023-03-29T07:55:27.342Z,37.25898308436788
2023-03-29T07:58:22.880Z,38.44510672150506
2023-03-29T08:01:21.489Z,38.306008832269235
2023-03-29T08:04:17.168Z,34.053525092539104
2023-03-29T08:10:19.152Z,35.010121784044
2023-03-29T08:13:15.661Z,39.43368774190945
2023-03-29T08:16:13.295Z,35.49039015424035
2023-03-29T08:19:08.797Z,36.58605336495357
2023-03-29T08:25:10.940Z,37.363556903142694
2023-03-29T08:28:09.430Z,36.06490718468766
2023-03-29T08:31:07.051Z,35.69352066697619
2023-03-29T08:34:02.594Z,33.791311288755495
2023-03-29T08:36:59.135Z,34.267633454447356
2023-03-29T08:39:54.740Z,32.6187335584815
2023-03-29T08:43:06.248Z,31.219373814144717
2023-03-29T08:46:11.889Z,33.81684255078704
2023-03-29T08:49:12.359Z,33.365638035642434
2023-03-29T08:52:15.855Z,31.468296551039387
2023-03-29T08:55:17.356Z,29.819032171896506
2023-03-29T08:58:19.920Z,31.667171177021967
2023-03-29T09:01:18.521Z,31.084034117391447
2023-03-29T09:04:19.045Z,31.83176751587017
2023-03-29T09:07:15.586Z,31.272567400153328
2023-03-29T09:10:13.189Z,30.353079076801222
2023-03-29T09:13:23.681Z,29.37599230506013
2023-03-29T09:16:26.302Z,32.28014841558074
2023-03-29T09:19:37.772Z,30.23798677872027
2023-03-29T09:25:53.849Z,29.59085298839758
2023-03-29T09:28:55.305Z,29.094636519239273
2023-03-29T09:31:54.952Z,28.253710145306222
2023-03-29T09:34:59.462Z,26.97193312467016
2023-03-29T09:38:00.035Z,30.64678963830589
2023-03-29T09:41:03.787Z,31.074997033518237
2023-03-29T09:44:07.335Z,26.06710352331949
2023-03-29T09:47:08.610Z,28.899348772304855
2023-03-29T09:50:16.851Z,28.827738227251825
2023-03-29T09:53:10.706Z,29.25578635212239
2023-03-29T09:56:09.259Z,31.100274224848903
2023-03-29T09:59:05.838Z,30.008687260219816
2023-03-29T10:02:08.368Z,30.79640841323484
2023-03-29T10:05:04.952Z,29.80803414219444
2023-03-29T10:08:13.489Z,30.074680264195077
2023-03-29T10:11:13.022Z,29.0857225086261
2023-03-29T10:14:16.575Z,28.524600784368406
2023-03-29T10:17:16.125Z,26.790445967929788
2023-03-29T10:20:18.662Z,28.01676106541647
2023-03-29T10:23:20.175Z,28.651218311136105
2023-03-29T10:26:23.727Z,27.229051295152267
2023-03-29T10:29:19.273Z,27.347783667264984
2023-03-29T10:32:16.852Z,29.537016840084465
2023-03-29T10:35:18.403Z,28.580689227231318
2023-03-29T10:38:16.920Z,27.33965680589766
2023-03-29T10:41:16.543Z,26.515309553841202
2023-03-29T10:44:27.061Z,27.495557442297976
2023-03-29T10:47:23.643Z,45.16143855742393
2023-03-29T10:50:22.127Z,32.36678600792363
2023-03-29T10:53:22.676Z,29.280133249245996
2023-03-29T10:56:27.193Z,24.899392742223633
2023-03-29T10:59:32.766Z,26.559882681240786
2023-03-29T11:02:43.346Z,26.802772399981063
2023-03-29T11:05:48.802Z,26.068690878667713
2023-03-29T11:08:57.345Z,27.29633627067154
2023-03-29T11:12:15.016Z,27.36517990928704
2023-03-29T11:15:15.366Z,27.147905644596165
2023-03-29T11:18:28.874Z,27.928014391232576
2023-03-29T11:21:34.447Z,27.75720006027546
2023-03-29T11:24:40.981Z,25.916044170431526
2023-03-29T11:27:49.511Z,25.39233732151863
2023-03-29T11:30:55.069Z,23.354311732513086
2023-03-29T11:34:04.535Z,23.46395285877814
2023-03-29T11:37:09.104Z,23.53000567600497
2023-03-29T11:40:19.647Z,22.841454190330953
2023-03-29T11:43:23.229Z,21.91601289039515
2023-03-29T11:46:26.770Z,23.063536030663606
2023-03-29T11:49:27.284Z,22.525332420058593
2023-03-29T11:52:28.845Z,24.689272260036013
2023-03-29T11:55:30.515Z,24.445163752840386
2023-03-29T11:58:30.900Z,24.071722099684536
2023-03-29T12:01:33.463Z,23.116284208927336
2023-03-29T12:04:36.003Z,23.09951243115363
2023-03-29T12:07:43.545Z,22.047652751593066
2023-03-29T12:10:44.080Z,21.601429971339424
2023-03-29T12:13:46.598Z,22.19866183452155
2023-03-29T12:16:48.250Z,22.532975516261665
2023-03-29T12:19:55.699Z,23.467845355878485
2023-03-29T12:22:52.275Z,24.691828698599906
2023-03-29T12:25:52.791Z,24.08288496654071
2023-03-29T12:29:06.358Z,23.71077522488796
2023-03-29T12:32:13.926Z,25.845548904733487
2023-03-29T12:35:24.374Z,24.3630449766319
2023-03-29T12:38:26.715Z,24.885090506062934
2023-03-29T12:41:28.491Z,25.130731817679994
2023-03-29T12:44:24.188Z,24.175476206127364
2023-03-29T12:47:25.596Z,22.736251449666565
2023-03-29T12:50:28.153Z,23.23248802826883
2023-03-29T12:53:26.665Z,22.495226854528234
2023-03-29T12:56:32.266Z,22.301558321546164
2023-03-29T12:59:37.794Z,22.449254548342452
2023-03-29T13:02:39.515Z,23.085402967821135
2023-03-29T13:05:37.913Z,23.00792554126591
2023-03-29T13:08:41.422Z,22.623730349424438
2023-03-29T13:11:39.971Z,23.225514443006876
2023-03-29T13:14:43.489Z,24.160636115221944
2023-03-29T13:17:45.248Z,24.56109832508563
2023-03-29T13:20:55.530Z,25.018754314029007
2023-03-29T13:24:03.054Z,23.465187349470703
2023-03-29T13:27:09.621Z,23.423067954379697
2023-03-29T13:30:20.127Z,24.115732265091648
2023-03-29T13:33:28.683Z,23.656382581597736
2023-03-29T13:36:35.209Z,24.21410167614195
2023-03-29T13:39:36.796Z,25.32342577617748
2023-03-29T13:42:41.317Z,27.172435581913206
2023-03-29T13:45:45.832Z,27.228114328628433
2023-03-29T13:48:49.342Z,26.84167016647339
2023-03-29T13:51:54.918Z,25.856933182609268
2023-03-29T13:54:57.412Z,26.640020678494704
2023-03-29T13:57:58.012Z,26.713695754228336
2023-03-29T14:01:00.643Z,26.440101373022085
2023-03-29T14:04:04.086Z,24.646480654757966
2023-03-29T14:07:06.680Z,25.557597550526744
2023-03-29T14:10:05.257Z,25.314655814011328
2023-03-29T14:13:04.732Z,24.103715812266298
2023-03-29T14:16:08.331Z,27.353614689379803
2023-03-29T14:19:10.817Z,24.44043481581176
2023-03-29T14:22:09.402Z,23.976558805007734
2023-03-29T14:25:11.925Z,23.480754226473778
2023-03-29T14:28:14.468Z,26.51665308395515
2023-03-29T14:34:16.560Z,23.699718324975613
2023-03-29T14:37:14.131Z,24.39703315095185
2023-03-29T14:40:16.696Z,24.95341759269534
2023-03-29T14:43:16.209Z,25.604522731111746
2023-03-29T14:46:13.795Z,23.095239638355697
2023-03-29T14:49:12.287Z,22.63272587178454
2023-03-29T14:52:10.899Z,22.772157678597278
2023-03-29T14:55:10.437Z,23.154547928666226
2023-03-29T14:58:12.954Z,23.999674918523187
2023-03-29T15:01:14.574Z,24.979266406462674
2023-03-29T15:04:15.131Z,24.64161657304535
2023-03-29T15:07:12.596Z,24.70150758395657
2023-03-29T15:10:17.194Z,24.805039390478935
2023-03-29T15:13:17.730Z,24.051353747968875
2023-03-29T15:16:15.373Z,26.9118844457317
2023-03-29T15:19:13.812Z,27.3791139771261
2023-03-29T15:22:10.405Z,26.573375353558806
2023-03-29T15:25:10.950Z,26.1615551344104
2023-03-29T15:28:18.493Z,25.50861013951572
2023-03-29T15:31:18.075Z,25.147864514328106
2023-03-29T15:34:14.609Z,26.119500915855344
2023-03-29T15:37:13.182Z,25.173780728748536
2023-03-29T15:40:15.788Z,24.99991858081179
2023-03-29T15:43:12.247Z,26.447799988583856
2023-03-29T15:46:08.098Z,27.219361917203575
2023-03-29T15:49:05.339Z,28.00814137134039
2023-03-29T15:52:00.881Z,28.957797823176858
2023-03-29T15:54:56.470Z,29.083484030146096
2023-03-29T15:57:53.110Z,28.50116518942671
2023-03-29T16:00:51.594Z,29.0870624832372
2023-03-29T16:03:48.173Z,28.60490621254464
2023-03-29T16:06:44.690Z,28.554622263601164
2023-03-29T16:09:44.304Z,28.932883184466803
2023-03-29T16:12:41.838Z,28.849896762977032
2023-03-29T16:15:43.352Z,29.816383356233246
2023-03-29T16:21:45.449Z,30.942792981268713
2023-03-29T16:24:44.008Z,31.414660016603158
2023-03-29T16:27:39.570Z,31.99770325332962
2023-03-29T16:30:36.116Z,32.877955841421446
2023-03-29T16:33:32.706Z,33.4921115187808
2023-03-29T16:36:30.289Z,33.22559210471599
2023-03-29T16:39:26.833Z,33.76036974567093
2023-03-29T16:42:22.358Z,33.62244224627362
2023-03-29T16:45:18.935Z,34.65185504272512
2023-03-29T16:48:16.498Z,33.64142430552031
2023-03-29T16:51:12.045Z,34.2686253656399
2023-03-29T16:57:13.193Z,33.729339410770464
2023-03-29T17:00:10.719Z,34.077100347558314
2023-03-29T17:03:07.271Z,34.464183616375166
2023-03-29T17:06:05.362Z,34.63790809543721
2023-03-29T17:09:01.348Z,34.759345864766594
2023-03-29T17:11:57.886Z,34.93173651855699
2023-03-29T17:14:53.468Z,35.21995564850304
2023-03-29T17:17:49.137Z,34.75331107017262
2023-03-29T17:20:45.588Z,35.259106683658544
2023-03-29T17:23:41.132Z,35.27013517985708
2023-03-29T17:26:39.744Z,36.63407037128897
2023-03-29T17:29:35.259Z,37.63620139917639
2023-03-29T17:32:30.891Z,37.82427980792891
2023-03-29T17:35:26.432Z,37.07159136271513
2023-03-29T17:38:21.926Z,38.02892799559649
2023-03-29T17:41:22.523Z,38.283277761266596
2023-03-29T17:44:20.256Z,38.39953330648709
2023-03-29T17:47:15.835Z,37.492354617771774
2023-03-29T17:50:12.536Z,37.46473816282214
2023-03-29T17:53:12.733Z,39.2221856729256
2023-03-29T17:56:20.268Z,39.105885068879715
2023-03-29T17:59:21.816Z,39.60809740856696
2023-03-29T18:02:23.511Z,39.60268498227952
2023-03-29T18:05:23.924Z,39.34863167466784
2023-03-29T18:08:24.475Z,39.69043063119321
2023-03-29T18:11:22.015Z,40.38614469166465
2023-03-29T18:14:22.566Z,40.84878535040869
2023-03-29T18:17:24.168Z,40.58952314056716
2023-03-29T18:20:24.682Z,39.65698936754868
2023-03-29T18:23:20.245Z,39.33181874078762
2023-03-29T18:26:22.843Z,40.407163519135
2023-03-29T18:29:23.339Z,40.83191811849805
2023-03-29T18:32:24.909Z,40.891862266035446
2023-03-29T18:35:25.558Z,41.07366567780591
2023-03-29T18:38:26.997Z,41.210768907760055
2023-03-29T18:41:27.538Z,41.53604325806276
2023-03-29T18:44:30.093Z,41.520625840701776
2023-03-29T18:50:43.198Z,40.20280274329437
2023-03-29T18:53:48.675Z,40.09241314030192
2023-03-29T18:56:50.254Z,40.61152214874387
2023-03-29T18:59:50.787Z,40.837966425327394
2023-03-29T19:02:51.371Z,41.565320969672065
2023-03-29T19:05:54.854Z,40.9257271727565
2023-03-29T19:08:53.410Z,42.71857054076167
2023-03-29T19:11:48.921Z,42.97159703370974
2023-03-29T19:14:55.505Z,44.00202733456237
2023-03-29T19:17:56.089Z,44.29331549296004
2023-03-29T19:20:53.618Z,44.30374500945013
2023-03-29T19:23:53.178Z,43.53469325951088
2023-03-29T19:26:51.726Z,43.9917016984155
2023-03-29T19:29:53.412Z,42.80982612530059
2023-03-29T19:32:49.896Z,43.24587744132275
2023-03-29T19:35:51.426Z,43.10764379465427
2023-03-29T19:38:47.868Z,43.103682066433414
2023-03-29T19:41:44.474Z,43.4892214074199
2023-03-29T19:44:45.026Z,44.426793281551866
2023-03-29T19:47:57.822Z,44.60955507704153
2023-03-29T19:50:53.119Z,43.86187451111101
2023-03-29T19:53:50.215Z,43.282233379367746
2023-03-29T19:56:52.566Z,44.65968402551515
2023-03-29T20:00:01.718Z,44.90109749715721
2023-03-29T20:02:59.390Z,44.66439470853801
2023-03-29T20:06:00.842Z,46.06643391164126
2023-03-29T20:09:06.224Z,44.891404089748775
2023-03-29T20:12:07.902Z,44.293274627531034
2023-03-29T20:15:04.465Z,45.89566532632497
2023-03-29T20:18:08.144Z,44.76176190106544
2023-03-29T20:24:15.137Z,44.74392117100525
2023-03-29T20:27:10.625Z,43.727487321057495
2023-03-29T20:30:09.210Z,44.38795515022378
2023-03-29T20:33:04.920Z,44.74518283031015
2023-03-29T20:36:00.455Z,45.51841419096434
2023-03-29T20:39:03.271Z,46.23391765667721
2023-03-29T20:42:00.414Z,45.235142203423266
2023-03-29T20:44:59.981Z,46.36176577648002
2023-03-29T20:47:57.927Z,45.92360315635304
2023-03-29T20:50:58.060Z,44.720529309429
2023-03-29T20:54:01.663Z,45.84430555607171
2023-03-29T20:56:58.250Z,45.98457587132537
2023-03-29T20:59:54.759Z,47.35367841750427
2023-03-29T21:02:54.385Z,47.2795138693232
2023-03-29T21:05:53.866Z,47.80858528559429
2023-03-29T21:08:52.750Z,47.17939633614699
2023-03-29T21:11:48.939Z,48.42590248549673
2023-03-29T21:14:51.540Z,46.84188480587948
2023-03-29T21:17:47.116Z,47.01597719652212
2023-03-29T21:20:44.613Z,46.27067338267073
2023-03-29T21:23:45.156Z,46.98259201481663
2023-03-29T21:26:41.730Z,47.13797350662432
2023-03-29T21:29:37.268Z,48.19526922312153
2023-03-29T21:32:32.906Z,45.724231574906625
2023-03-29T21:35:28.462Z,44.91514212757297
2023-03-29T21:38:28.958Z,44.833756667992084
2023-03-29T21:41:24.508Z,45.93277003807972
2023-03-29T21:44:20.092Z,45.33340788988249
2023-03-29T21:47:15.654Z,45.18094935809005
2023-03-29T21:50:11.204Z,46.26119176866461
2023-03-29T21:53:08.793Z,45.937532172706845
2023-03-29T21:56:06.369Z,45.774156807123234
2023-03-29T21:59:06.867Z,48.02892273167383
2023-03-29T22:05:07.986Z,48.586547692993314
2023-03-29T22:08:09.568Z,50.19074754627934
2023-03-29T22:11:11.129Z,48.704829205249595
2023-03-29T22:14:07.624Z,49.07864820781775
2023-03-29T22:17:05.179Z,49.21556603456686
2023-03-29T22:20:12.720Z,47.92636749241154
2023-03-29T22:23:09.299Z,47.5612206529861
2023-03-29T22:26:06.871Z,46.02525124827697
2023-03-29T22:29:03.383Z,44.78384451437629
2023-03-29T22:31:59.960Z,46.30400444090695
2023-03-29T22:34:56.520Z,46.73511423044698
2023-03-29T22:37:54.070Z,45.28229643488577
2023-03-29T22:40:49.613Z,47.228223616787254
2023-03-29T22:43:46.183Z,48.27853530751883
2023-03-29T22:46:42.747Z,49.63047138198548
2023-03-29T22:49:38.312Z,50.0834717752064
2023-03-29T22:52:33.858Z,50.05224882690653
2023-03-29T22:55:29.436Z,49.59406711527479
2023-03-29T22:58:24.972Z,49.79688421337354
2023-03-29T23:01:20.523Z,50.20071667715274
2023-03-29T23:04:17.134Z,50.39653420193862
2023-03-29T23:07:12.670Z,50.536770786274836
2023-03-29T23:13:20.764Z,51.73920691429554
2023-03-29T23:16:20.329Z,52.98417380720485
2023-03-29T23:19:16.882Z,52.994270524972954
2023-03-29T23:22:13.420Z,54.688818902583776
2023-03-29T23:25:09.000Z,54.774409499753396
2023-03-29T23:28:04.512Z,56.75272973336167
2023-03-29T23:31:02.920Z,54.28996529241269
2023-03-29T23:33:59.647Z,56.223335747049475
2023-03-29T23:36:58.189Z,55.349482337673614
2023-03-29T23:39:53.744Z,56.20476529763972
2023-03-29T23:45:55.851Z,57.05771659798504
2023-03-29T23:48:52.388Z,56.581345949807485
2023-03-29T23:51:50.999Z,56.89579032650927
2023-03-29T23:54:49.529Z,57.282848069492715
2023-03-29T23:57:46.123Z,56.25915393055939
